sensor_id;sensor_type;location;lat;lon;timestamp;pressure;altitude;pressure_sealevel;temperature;humidity
72961;BME280;61141;46.204;19.774;2024-02-21T00:02:41;101248.31;;;7.87;100.00
72961;BME280;61141;46.204;19.774;2024-02-21T00:05:43;101238.50;;;7.86;100.00
72961;BME280;61141;46.204;19.774;2024-02-21T00:08:46;101248.75;;;7.89;100.00
72961;BME280;61141;46.204;19.774;2024-02-21T00:11:49;101250.47;;;7.73;100.00
72961;BME280;61141;46.204;19.774;2024-02-21T00:14:52;101248.00;;;7.80;100.00
72961;BME280;61141;46.204;19.774;2024-02-21T00:17:55;101249.03;;;7.96;100.00
72961;BME280;61141;46.204;19.774;2024-02-21T00:20:57;101242.72;;;7.75;100.00
72961;BME280;61141;46.204;19.774;2024-02-21T00:24:00;101245.66;;;7.69;100.00
72961;BME280;61141;46.204;19.774;2024-02-21T00:27:03;101240.34;;;7.73;100.00
72961;BME280;61141;46.204;19.774;2024-02-21T00:30:07;101239.88;;;7.62;100.00
72961;BME280;61141;46.204;19.774;2024-02-21T00:33:09;101239.88;;;7.62;100.00
72961;BME280;61141;46.204;19.774;2024-02-21T00:36:12;101250.22;;;7.48;100.00
72961;BME280;61141;46.204;19.774;2024-02-21T00:39:15;101238.72;;;7.43;100.00
72961;BME280;61141;46.204;19.774;2024-02-21T00:42:18;101236.91;;;7.47;100.00
72961;BME280;61141;46.204;19.774;2024-02-21T00:45:20;101232.75;;;7.41;100.00
72961;BME280;61141;46.204;19.774;2024-02-21T00:48:23;101239.22;;;7.28;100.00
72961;BME280;61141;46.204;19.774;2024-02-21T00:51:26;101230.13;;;7.15;100.00
72961;BME280;61141;46.204;19.774;2024-02-21T00:54:29;101250.13;;;7.19;100.00
72961;BME280;61141;46.204;19.774;2024-02-21T00:57:49;101238.94;;;7.12;100.00
72961;BME280;61141;46.204;19.774;2024-02-21T01:00:52;101229.97;;;7.12;100.00
72961;BME280;61141;46.204;19.774;2024-02-21T01:03:56;101226.28;;;6.99;100.00
72961;BME280;61141;46.204;19.774;2024-02-21T01:06:59;101221.62;;;7.08;100.00
72961;BME280;61141;46.204;19.774;2024-02-21T01:10:01;101226.47;;;7.02;100.00
72961;BME280;61141;46.204;19.774;2024-02-21T01:13:04;101217.81;;;7.00;100.00
72961;BME280;61141;46.204;19.774;2024-02-21T01:16:08;101219.91;;;6.95;100.00
72961;BME280;61141;46.204;19.774;2024-02-21T01:19:11;101202.13;;;6.89;100.00
72961;BME280;61141;46.204;19.774;2024-02-21T01:22:13;101223.44;;;6.95;100.00
72961;BME280;61141;46.204;19.774;2024-02-21T01:25:18;101210.78;;;6.82;100.00
72961;BME280;61141;46.204;19.774;2024-02-21T01:28:21;101218.81;;;6.70;100.00
72961;BME280;61141;46.204;19.774;2024-02-21T01:31:25;101205.22;;;6.79;100.00
72961;BME280;61141;46.204;19.774;2024-02-21T01:34:27;101206.16;;;6.66;100.00
72961;BME280;61141;46.204;19.774;2024-02-21T01:37:34;101188.41;;;6.60;100.00
72961;BME280;61141;46.204;19.774;2024-02-21T01:40:37;101200.88;;;6.69;100.00
72961;BME280;61141;46.204;19.774;2024-02-21T01:43:40;101208.09;;;6.74;100.00
72961;BME280;61141;46.204;19.774;2024-02-21T01:46:43;101195.44;;;6.61;100.00
72961;BME280;61141;46.204;19.774;2024-02-21T01:49:46;101207.13;;;6.78;100.00
72961;BME280;61141;46.204;19.774;2024-02-21T01:52:50;101199.44;;;6.63;100.00
72961;BME280;61141;46.204;19.774;2024-02-21T01:55:53;101194.78;;;6.64;100.00
72961;BME280;61141;46.204;19.774;2024-02-21T01:58:56;101197.34;;;6.69;100.00
72961;BME280;61141;46.204;19.774;2024-02-21T02:02:00;101197.69;;;6.59;100.00
72961;BME280;61141;46.204;19.774;2024-02-21T02:05:03;101194.97;;;6.59;100.00
72961;BME280;61141;46.204;19.774;2024-02-21T02:08:08;101181.34;;;6.50;100.00
72961;BME280;61141;46.204;19.774;2024-02-21T02:11:13;101186.16;;;6.53;100.00
72961;BME280;61141;46.204;19.774;2024-02-21T02:14:16;101188.41;;;6.42;100.00
72961;BME280;61141;46.204;19.774;2024-02-21T02:17:19;101186.00;;;6.49;100.00
72961;BME280;61141;46.204;19.774;2024-02-21T02:20:22;101182.97;;;6.60;100.00
72961;BME280;61141;46.204;19.774;2024-02-21T02:23:26;101179.09;;;6.61;100.00
72961;BME280;61141;46.204;19.774;2024-02-21T02:26:29;101181.84;;;6.52;100.00
72961;BME280;61141;46.204;19.774;2024-02-21T02:29:32;101182.81;;;6.47;100.00
72961;BME280;61141;46.204;19.774;2024-02-21T02:32:35;101183.78;;;6.52;100.00
72961;BME280;61141;46.204;19.774;2024-02-21T02:35:38;101175.09;;;6.49;100.00
72961;BME280;61141;46.204;19.774;2024-02-21T02:38:41;101178.47;;;6.38;100.00
72961;BME280;61141;46.204;19.774;2024-02-21T02:41:44;101161.53;;;6.15;100.00
72961;BME280;61141;46.204;19.774;2024-02-21T02:44:47;101185.69;;;6.42;100.00
72961;BME280;61141;46.204;19.774;2024-02-21T02:47:50;101176.41;;;6.35;100.00
72961;BME280;61141;46.204;19.774;2024-02-21T02:50:53;101188.88;;;6.53;100.00
72961;BME280;61141;46.204;19.774;2024-02-21T02:53:55;101193.06;;;6.42;100.00
72961;BME280;61141;46.204;19.774;2024-02-21T02:56:59;101195.59;;;6.56;100.00
72961;BME280;61141;46.204;19.774;2024-02-21T03:00:02;101189.53;;;6.41;100.00
72961;BME280;61141;46.204;19.774;2024-02-21T03:03:06;101202.97;;;6.64;100.00
72961;BME280;61141;46.204;19.774;2024-02-21T03:06:11;101195.59;;;6.56;100.00
72961;BME280;61141;46.204;19.774;2024-02-21T03:09:13;101203.75;;;6.73;100.00
72961;BME280;61141;46.204;19.774;2024-02-21T03:12:18;101204.56;;;6.47;100.00
72961;BME280;61141;46.204;19.774;2024-02-21T03:15:26;101193.84;;;6.60;100.00
72961;BME280;61141;46.204;19.774;2024-02-21T03:18:29;101207.94;;;6.70;100.00
72961;BME280;61141;46.204;19.774;2024-02-21T03:21:32;101212.09;;;6.59;100.00
72961;BME280;61141;46.204;19.774;2024-02-21T03:24:35;101198.97;;;6.53;100.00
72961;BME280;61141;46.204;19.774;2024-02-21T03:27:38;101202.47;;;6.79;100.00
72961;BME280;61141;46.204;19.774;2024-02-21T03:30:41;101205.69;;;6.81;100.00
72961;BME280;61141;46.204;19.774;2024-02-21T03:33:44;101195.12;;;6.62;100.00
72961;BME280;61141;46.204;19.774;2024-02-21T03:36:47;101207.75;;;6.75;100.00
72961;BME280;61141;46.204;19.774;2024-02-21T03:39:49;101207.59;;;6.72;100.00
72961;BME280;61141;46.204;19.774;2024-02-21T03:42:52;101206.00;;;6.79;100.00
72961;BME280;61141;46.204;19.774;2024-02-21T03:45:55;101207.28;;;6.73;100.00
72961;BME280;61141;46.204;19.774;2024-02-21T03:48:57;101208.22;;;6.86;100.00
72961;BME280;61141;46.204;19.774;2024-02-21T03:52:00;101214.13;;;6.96;100.00
72961;BME280;61141;46.204;19.774;2024-02-21T03:55:03;101217.66;;;6.97;100.00
72961;BME280;61141;46.204;19.774;2024-02-21T03:58:06;101211.59;;;6.83;100.00
72961;BME280;61141;46.204;19.774;2024-02-21T04:01:09;101216.03;;;7.04;100.00
72961;BME280;61141;46.204;19.774;2024-02-21T04:04:12;101211.84;;;7.07;100.00
72961;BME280;61141;46.204;19.774;2024-02-21T04:07:15;101214.47;;;6.95;100.00
72961;BME280;61141;46.204;19.774;2024-02-21T04:10:18;101210.59;;;6.96;100.00
72961;BME280;61141;46.204;19.774;2024-02-21T04:13:20;101215.75;;;6.89;100.00
72961;BME280;61141;46.204;19.774;2024-02-21T04:16:24;101210.94;;;6.94;100.00
72961;BME280;61141;46.204;19.774;2024-02-21T04:19:27;101204.56;;;6.82;100.00
72961;BME280;61141;46.204;19.774;2024-02-21T04:22:31;101206.75;;;6.97;100.00
72961;BME280;61141;46.204;19.774;2024-02-21T04:25:37;101199.56;;;6.92;100.00
72961;BME280;61141;46.204;19.774;2024-02-21T04:28:40;101199.69;;;6.96;100.00
72961;BME280;61141;46.204;19.774;2024-02-21T04:31:43;101195.50;;;7.07;100.00
72961;BME280;61141;46.204;19.774;2024-02-21T04:34:46;101199.84;;;7.08;99.35
72961;BME280;61141;46.204;19.774;2024-02-21T04:37:49;101200.81;;;7.12;100.00
72961;BME280;61141;46.204;19.774;2024-02-21T04:40:52;101199.56;;;7.01;99.28
72961;BME280;61141;46.204;19.774;2024-02-21T04:43:55;101202.28;;;7.01;100.00
72961;BME280;61141;46.204;19.774;2024-02-21T04:46:58;101210.44;;;7.09;100.00
72961;BME280;61141;46.204;19.774;2024-02-21T04:50:00;101212.66;;;7.07;99.78
72961;BME280;61141;46.204;19.774;2024-02-21T04:53:03;101206.41;;;7.07;99.57
72961;BME280;61141;46.204;19.774;2024-02-21T04:56:06;101211.19;;;7.19;99.47
72961;BME280;61141;46.204;19.774;2024-02-21T04:59:09;101204.50;;;6.99;99.53
72961;BME280;61141;46.204;19.774;2024-02-21T05:02:12;101207.56;;;6.97;99.60
72961;BME280;61141;46.204;19.774;2024-02-21T05:05:17;101205.00;;;7.01;99.92
72961;BME280;61141;46.204;19.774;2024-02-21T05:08:20;101209.81;;;7.04;99.54
72961;BME280;61141;46.204;19.774;2024-02-21T05:11:23;101202.28;;;7.01;99.09
72961;BME280;61141;46.204;19.774;2024-02-21T05:14:26;101200.19;;;6.98;99.44
72961;BME280;61141;46.204;19.774;2024-02-21T05:17:31;101207.84;;;7.04;99.44
72961;BME280;61141;46.204;19.774;2024-02-21T05:20:34;101210.88;;;7.20;98.32
72961;BME280;61141;46.204;19.774;2024-02-21T05:23:37;101208.16;;;7.20;98.24
72961;BME280;61141;46.204;19.774;2024-02-21T05:26:41;101213.94;;;7.10;98.53
72961;BME280;61141;46.204;19.774;2024-02-21T05:29:44;101210.56;;;7.13;99.07
72961;BME280;61141;46.204;19.774;2024-02-21T05:32:47;101193.97;;;6.89;99.01
72961;BME280;61141;46.204;19.774;2024-02-21T05:35:51;101202.53;;;7.25;98.18
72961;BME280;61141;46.204;19.774;2024-02-21T05:38:54;101208.19;;;7.03;98.28
72961;BME280;61141;46.204;19.774;2024-02-21T05:41:57;101201.09;;;7.19;98.23
72961;BME280;61141;46.204;19.774;2024-02-21T05:45:02;101193.94;;;7.06;98.38
72961;BME280;61141;46.204;19.774;2024-02-21T05:48:06;101198.72;;;7.55;96.85
72961;BME280;61141;46.204;19.774;2024-02-21T05:51:09;101202.22;;;7.64;96.30
72961;BME280;61141;46.204;19.774;2024-02-21T05:54:12;101208.66;;;7.51;95.88
72961;BME280;61141;46.204;19.774;2024-02-21T05:57:14;101178.59;;;7.39;96.61
72961;BME280;61141;46.204;19.774;2024-02-21T06:00:17;101192.06;;;7.36;96.50
72961;BME280;61141;46.204;19.774;2024-02-21T06:03:20;101209.78;;;7.59;96.27
72961;BME280;61141;46.204;19.774;2024-02-21T06:06:23;101205.44;;;7.58;96.66
72961;BME280;61141;46.204;19.774;2024-02-21T06:09:26;101200.28;;;7.19;95.53
72961;BME280;61141;46.204;19.774;2024-02-21T06:12:30;101208.38;;;7.44;96.64
72961;BME280;61141;46.204;19.774;2024-02-21T06:15:33;101226.25;;;7.62;94.64
72961;BME280;61141;46.204;19.774;2024-02-21T06:18:36;101227.72;;;8.18;92.62
72961;BME280;61141;46.204;19.774;2024-02-21T06:21:39;101228.31;;;8.03;92.73
72961;BME280;61141;46.204;19.774;2024-02-21T06:24:43;101236.63;;;8.07;92.07
72961;BME280;61141;46.204;19.774;2024-02-21T06:27:46;101231.03;;;8.33;91.71
72961;BME280;61141;46.204;19.774;2024-02-21T06:30:49;101232.53;;;8.21;91.54
72961;BME280;61141;46.204;19.774;2024-02-21T06:33:51;101238.00;;;7.92;92.20
72961;BME280;61141;46.204;19.774;2024-02-21T06:36:54;101236.78;;;7.81;92.97
72961;BME280;61141;46.204;19.774;2024-02-21T06:39:58;101239.06;;;8.00;92.62
72961;BME280;61141;46.204;19.774;2024-02-21T06:43:00;101247.97;;;7.50;93.03
72961;BME280;61141;46.204;19.774;2024-02-21T06:46:03;101248.44;;;7.52;94.17
72961;BME280;61141;46.204;19.774;2024-02-21T06:49:06;101244.00;;;7.39;95.24
72961;BME280;61141;46.204;19.774;2024-02-21T06:52:09;101266.19;;;7.67;95.06
72961;BME280;61141;46.204;19.774;2024-02-21T06:55:12;101231.75;;;7.54;94.75
72961;BME280;61141;46.204;19.774;2024-02-21T06:58:15;101260.69;;;7.84;93.37
72961;BME280;61141;46.204;19.774;2024-02-21T07:01:19;101262.59;;;7.84;93.99
72961;BME280;61141;46.204;19.774;2024-02-21T07:04:22;101263.25;;;8.10;93.19
72961;BME280;61141;46.204;19.774;2024-02-21T07:07:25;101265.66;;;8.11;93.10
72961;BME280;61141;46.204;19.774;2024-02-21T07:10:28;101268.81;;;8.22;91.24
72961;BME280;61141;46.204;19.774;2024-02-21T07:13:32;101272.44;;;8.35;91.55
72961;BME280;61141;46.204;19.774;2024-02-21T07:16:35;101279.72;;;8.51;89.94
72961;BME280;61141;46.204;19.774;2024-02-21T07:19:38;101275.00;;;8.60;89.44
72961;BME280;61141;46.204;19.774;2024-02-21T07:22:41;101274.19;;;8.80;88.81
72961;BME280;61141;46.204;19.774;2024-02-21T07:25:44;101274.25;;;8.72;87.34
72961;BME280;61141;46.204;19.774;2024-02-21T07:28:47;101277.84;;;8.84;87.56
72961;BME280;61141;46.204;19.774;2024-02-21T07:31:50;101273.34;;;9.01;87.75
72961;BME280;61141;46.204;19.774;2024-02-21T07:34:54;101260.69;;;9.17;86.30
72961;BME280;61141;46.204;19.774;2024-02-21T07:37:57;101266.91;;;9.17;85.27
72961;BME280;61141;46.204;19.774;2024-02-21T07:41:00;101269.50;;;9.02;86.00
72961;BME280;61141;46.204;19.774;2024-02-21T07:44:03;101272.28;;;9.14;86.12
72961;BME280;61141;46.204;19.774;2024-02-21T07:47:06;101265.44;;;9.20;86.27
72961;BME280;61141;46.204;19.774;2024-02-21T07:50:10;101267.19;;;9.24;85.39
72961;BME280;61141;46.204;19.774;2024-02-21T07:53:14;101265.28;;;9.37;82.04
72961;BME280;61141;46.204;19.774;2024-02-21T07:56:17;101261.19;;;9.43;82.61
72961;BME280;61141;46.204;19.774;2024-02-21T07:59:20;101254.63;;;9.92;82.24
72961;BME280;61141;46.204;19.774;2024-02-21T08:02:23;101256.69;;;10.08;82.71
72961;BME280;61141;46.204;19.774;2024-02-21T08:05:26;101255.78;;;9.79;82.04
72961;BME280;61141;46.204;19.774;2024-02-21T08:08:29;101257.13;;;9.97;81.51
72961;BME280;61141;46.204;19.774;2024-02-21T08:11:32;101251.44;;;9.90;82.77
72961;BME280;61141;46.204;19.774;2024-02-21T08:14:35;101252.34;;;9.94;81.12
72961;BME280;61141;46.204;19.774;2024-02-21T08:17:38;101261.69;;;10.05;80.82
72961;BME280;61141;46.204;19.774;2024-02-21T08:20:41;101256.00;;;9.98;82.46
72961;BME280;61141;46.204;19.774;2024-02-21T08:23:44;101258.75;;;10.11;78.41
72961;BME280;61141;46.204;19.774;2024-02-21T08:26:47;101260.22;;;10.20;79.70
72961;BME280;61141;46.204;19.774;2024-02-21T08:29:49;101258.88;;;10.14;79.33
72961;BME280;61141;46.204;19.774;2024-02-21T08:32:52;101252.25;;;10.15;78.07
72961;BME280;61141;46.204;19.774;2024-02-21T08:35:57;101257.56;;;10.36;78.49
72961;BME280;61141;46.204;19.774;2024-02-21T08:39:00;101262.59;;;10.46;77.61
72961;BME280;61141;46.204;19.774;2024-02-21T08:42:04;101254.37;;;10.34;77.47
72961;BME280;61141;46.204;19.774;2024-02-21T08:45:07;101247.72;;;10.59;77.59
72961;BME280;61141;46.204;19.774;2024-02-21T08:48:10;101246.41;;;10.29;75.74
72961;BME280;61141;46.204;19.774;2024-02-21T08:51:15;101244.34;;;10.38;76.15
72961;BME280;61141;46.204;19.774;2024-02-21T08:54:18;101231.25;;;10.71;75.59
72961;BME280;61141;46.204;19.774;2024-02-21T08:57:21;101254.28;;;10.82;73.97
72961;BME280;61141;46.204;19.774;2024-02-21T09:00:24;101236.13;;;10.78;73.96
72961;BME280;61141;46.204;19.774;2024-02-21T09:03:33;101242.69;;;10.61;74.15
72961;BME280;61141;46.204;19.774;2024-02-21T09:06:36;101251.72;;;10.89;73.26
72961;BME280;61141;46.204;19.774;2024-02-21T09:09:41;101240.91;;;10.81;73.23
72961;BME280;61141;46.204;19.774;2024-02-21T09:12:44;101248.09;;;10.85;72.20
72961;BME280;61141;46.204;19.774;2024-02-21T09:15:47;101241.41;;;10.98;71.79
72961;BME280;61141;46.204;19.774;2024-02-21T09:18:51;101254.47;;;10.49;73.06
72961;BME280;61141;46.204;19.774;2024-02-21T09:21:55;101258.06;;;10.26;74.61
72961;BME280;61141;46.204;19.774;2024-02-21T09:24:58;101253.44;;;10.54;72.18
72961;BME280;61141;46.204;19.774;2024-02-21T09:28:02;101245.97;;;10.67;72.03
72961;BME280;61141;46.204;19.774;2024-02-21T09:31:05;101240.00;;;10.49;70.65
72961;BME280;61141;46.204;19.774;2024-02-21T09:34:08;101247.34;;;10.60;70.48
72961;BME280;61141;46.204;19.774;2024-02-21T09:37:11;101254.31;;;10.70;70.53
72961;BME280;61141;46.204;19.774;2024-02-21T09:40:15;101246.34;;;10.65;70.30
72961;BME280;61141;46.204;19.774;2024-02-21T09:43:20;101226.37;;;11.08;71.48
72961;BME280;61141;46.204;19.774;2024-02-21T09:46:52;101250.31;;;11.39;68.86
72961;BME280;61141;46.204;19.774;2024-02-21T09:50:00;101254.22;;;11.38;68.07
72961;BME280;61141;46.204;19.774;2024-02-21T09:53:04;101255.44;;;11.25;68.28
72961;BME280;61141;46.204;19.774;2024-02-21T09:56:08;101241.06;;;11.43;68.44
72961;BME280;61141;46.204;19.774;2024-02-21T09:59:16;101245.94;;;11.06;67.06
72961;BME280;61141;46.204;19.774;2024-02-21T10:02:19;101241.94;;;11.47;67.42
72961;BME280;61141;46.204;19.774;2024-02-21T10:05:23;101248.31;;;11.51;67.46
72961;BME280;61141;46.204;19.774;2024-02-21T10:08:27;101247.31;;;11.44;66.46
72961;BME280;61141;46.204;19.774;2024-02-21T10:11:30;101241.31;;;11.54;67.43
72961;BME280;61141;46.204;19.774;2024-02-21T10:14:33;101247.72;;;11.89;67.06
72961;BME280;61141;46.204;19.774;2024-02-21T10:17:36;101236.16;;;11.99;64.71
72961;BME280;61141;46.204;19.774;2024-02-21T10:20:42;101236.75;;;12.24;62.99
72961;BME280;61141;46.204;19.774;2024-02-21T10:23:48;101235.22;;;12.26;63.75
72961;BME280;61141;46.204;19.774;2024-02-21T10:27:01;101231.97;;;11.70;65.38
72961;BME280;61141;46.204;19.774;2024-02-21T10:30:08;101227.13;;;11.20;66.80
72961;BME280;61141;46.204;19.774;2024-02-21T10:33:15;101223.59;;;11.20;66.43
72961;BME280;61141;46.204;19.774;2024-02-21T10:36:19;101195.44;;;11.39;66.55
72961;BME280;61141;46.204;19.774;2024-02-21T10:39:21;101210.34;;;11.85;62.84
72961;BME280;61141;46.204;19.774;2024-02-21T10:42:28;101207.84;;;11.95;62.28
72961;BME280;61141;46.204;19.774;2024-02-21T10:45:36;101210.03;;;12.05;62.61
72961;BME280;61141;46.204;19.774;2024-02-21T10:48:43;101200.41;;;11.49;63.62
72961;BME280;61141;46.204;19.774;2024-02-21T10:51:47;101202.72;;;11.15;65.84
72961;BME280;61141;46.204;19.774;2024-02-21T10:54:55;101192.87;;;11.30;67.23
72961;BME280;61141;46.204;19.774;2024-02-21T10:58:00;101185.56;;;11.81;65.72
72961;BME280;61141;46.204;19.774;2024-02-21T11:01:04;101188.72;;;11.52;59.05
72961;BME280;61141;46.204;19.774;2024-02-21T11:04:09;101175.28;;;12.13;59.76
72961;BME280;61141;46.204;19.774;2024-02-21T11:07:15;101183.75;;;12.23;58.87
72961;BME280;61141;46.204;19.774;2024-02-21T11:10:25;101176.19;;;12.55;56.76
72961;BME280;61141;46.204;19.774;2024-02-21T11:13:35;101170.91;;;12.27;57.27
72961;BME280;61141;46.204;19.774;2024-02-21T11:16:41;101162.06;;;12.18;58.25
72961;BME280;61141;46.204;19.774;2024-02-21T11:19:45;101165.19;;;12.17;55.92
72961;BME280;61141;46.204;19.774;2024-02-21T11:22:48;101164.59;;;12.27;58.13
72961;BME280;61141;46.204;19.774;2024-02-21T11:25:52;101152.37;;;12.05;57.15
72961;BME280;61141;46.204;19.774;2024-02-21T11:29:04;101156.13;;;11.97;58.08
72961;BME280;61141;46.204;19.774;2024-02-21T11:32:09;101139.66;;;11.66;59.58
72961;BME280;61141;46.204;19.774;2024-02-21T11:35:19;101156.50;;;11.80;60.29
72961;BME280;61141;46.204;19.774;2024-02-21T11:38:22;101141.69;;;12.19;61.18
72961;BME280;61141;46.204;19.774;2024-02-21T11:41:27;101132.13;;;12.52;58.75
72961;BME280;61141;46.204;19.774;2024-02-21T11:44:34;101150.22;;;12.14;56.85
72961;BME280;61141;46.204;19.774;2024-02-21T11:47:37;101128.28;;;11.99;58.53
72961;BME280;61141;46.204;19.774;2024-02-21T11:50:53;101112.78;;;11.71;59.48
72961;BME280;61141;46.204;19.774;2024-02-21T11:53:57;101106.66;;;11.78;60.50
72961;BME280;61141;46.204;19.774;2024-02-21T11:57:04;101105.38;;;12.10;55.68
72961;BME280;61141;46.204;19.774;2024-02-21T12:00:14;101108.66;;;12.16;49.92
72961;BME280;61141;46.204;19.774;2024-02-21T12:03:18;101115.06;;;12.23;51.88
72961;BME280;61141;46.204;19.774;2024-02-21T12:06:21;101103.44;;;12.30;54.03
72961;BME280;61141;46.204;19.774;2024-02-21T12:09:25;101104.03;;;12.39;54.26
72961;BME280;61141;46.204;19.774;2024-02-21T12:12:28;101100.06;;;12.36;53.43
72961;BME280;61141;46.204;19.774;2024-02-21T12:15:31;101097.59;;;12.51;50.74
72961;BME280;61141;46.204;19.774;2024-02-21T12:18:34;101093.25;;;12.30;52.27
72961;BME280;61141;46.204;19.774;2024-02-21T12:21:37;101099.34;;;12.40;52.31
72961;BME280;61141;46.204;19.774;2024-02-21T12:24:40;101095.22;;;12.11;54.69
72961;BME280;61141;46.204;19.774;2024-02-21T12:27:49;101095.00;;;12.19;57.88
72961;BME280;61141;46.204;19.774;2024-02-21T12:30:52;101093.84;;;12.40;56.72
72961;BME280;61141;46.204;19.774;2024-02-21T12:33:55;101100.34;;;12.31;56.96
72961;BME280;61141;46.204;19.774;2024-02-21T12:36:59;101080.34;;;12.12;55.92
72961;BME280;61141;46.204;19.774;2024-02-21T12:40:02;101083.69;;;12.44;54.71
72961;BME280;61141;46.204;19.774;2024-02-21T12:43:09;101076.94;;;12.60;55.26
72961;BME280;61141;46.204;19.774;2024-02-21T12:46:12;101064.75;;;12.38;54.19
72961;BME280;61141;46.204;19.774;2024-02-21T12:49:15;101067.63;;;12.46;54.87
72961;BME280;61141;46.204;19.774;2024-02-21T12:52:19;101077.78;;;12.42;55.68
72961;BME280;61141;46.204;19.774;2024-02-21T12:55:21;101092.47;;;12.30;54.03
72961;BME280;61141;46.204;19.774;2024-02-21T12:58:24;101067.34;;;12.51;54.14
72961;BME280;61141;46.204;19.774;2024-02-21T13:01:27;101064.41;;;12.63;53.28
72961;BME280;61141;46.204;19.774;2024-02-21T13:04:31;101062.72;;;13.00;52.65
72961;BME280;61141;46.204;19.774;2024-02-21T13:07:34;101059.50;;;12.72;52.48
72961;BME280;61141;46.204;19.774;2024-02-21T13:10:37;101056.25;;;12.89;52.53
72961;BME280;61141;46.204;19.774;2024-02-21T13:13:40;101058.88;;;12.82;52.50
72961;BME280;61141;46.204;19.774;2024-02-21T13:16:43;101054.09;;;12.79;51.96
72961;BME280;61141;46.204;19.774;2024-02-21T13:19:46;101048.31;;;12.84;51.73
72961;BME280;61141;46.204;19.774;2024-02-21T13:22:49;101049.66;;;12.93;50.60
72961;BME280;61141;46.204;19.774;2024-02-21T13:25:52;101050.44;;;12.94;52.37
72961;BME280;61141;46.204;19.774;2024-02-21T13:28:55;101046.06;;;12.67;51.60
72961;BME280;61141;46.204;19.774;2024-02-21T13:31:58;101051.97;;;12.91;53.77
72961;BME280;61141;46.204;19.774;2024-02-21T13:35:01;101052.62;;;12.85;53.47
72961;BME280;61141;46.204;19.774;2024-02-21T13:38:05;101044.03;;;12.64;54.53
72961;BME280;61141;46.204;19.774;2024-02-21T13:41:09;101046.63;;;12.57;54.86
72961;BME280;61141;46.204;19.774;2024-02-21T13:44:11;101047.50;;;12.19;56.75
72961;BME280;61141;46.204;19.774;2024-02-21T13:47:15;101053.19;;;12.29;58.16
72961;BME280;61141;46.204;19.774;2024-02-21T13:50:18;101040.66;;;12.09;56.21
72961;BME280;61141;46.204;19.774;2024-02-21T13:53:29;101037.44;;;12.07;55.99
72961;BME280;61141;46.204;19.774;2024-02-21T13:56:32;101036.59;;;12.22;57.61
72961;BME280;61141;46.204;19.774;2024-02-21T13:59:35;101043.81;;;11.92;56.49
72961;BME280;61141;46.204;19.774;2024-02-21T14:02:38;101043.16;;;12.18;57.87
72961;BME280;61141;46.204;19.774;2024-02-21T14:05:41;101037.81;;;12.06;57.13
72961;BME280;61141;46.204;19.774;2024-02-21T14:08:45;101044.63;;;11.93;58.06
72961;BME280;61141;46.204;19.774;2024-02-21T14:11:48;101031.66;;;12.12;58.07
72961;BME280;61141;46.204;19.774;2024-02-21T14:14:51;101025.53;;;12.19;58.31
72961;BME280;61141;46.204;19.774;2024-02-21T14:17:54;101024.28;;;12.35;57.87
72961;BME280;61141;46.204;19.774;2024-02-21T14:20:59;101022.47;;;12.66;57.39
72961;BME280;61141;46.204;19.774;2024-02-21T14:24:04;101025.94;;;12.85;57.08
72961;BME280;61141;46.204;19.774;2024-02-21T14:27:06;101017.75;;;12.44;57.00
72961;BME280;61141;46.204;19.774;2024-02-21T14:30:11;100960.16;;;12.28;56.83
72961;BME280;61141;46.204;19.774;2024-02-21T14:33:14;101011.84;;;12.42;57.09
72961;BME280;61141;46.204;19.774;2024-02-21T14:36:17;101012.19;;;12.63;56.48
72961;BME280;61141;46.204;19.774;2024-02-21T14:39:20;101001.03;;;12.52;56.63
72961;BME280;61141;46.204;19.774;2024-02-21T14:42:23;101015.31;;;12.84;54.93
72961;BME280;61141;46.204;19.774;2024-02-21T14:45:25;101016.78;;;13.01;53.93
72961;BME280;61141;46.204;19.774;2024-02-21T14:48:28;101015.97;;;12.55;51.93
72961;BME280;61141;46.204;19.774;2024-02-21T14:51:31;101010.50;;;12.55;53.53
72961;BME280;61141;46.204;19.774;2024-02-21T14:54:34;101016.44;;;12.37;54.71
72961;BME280;61141;46.204;19.774;2024-02-21T14:57:37;101013.13;;;12.48;56.34
72961;BME280;61141;46.204;19.774;2024-02-21T15:00:40;101011.50;;;12.24;55.48
72961;BME280;61141;46.204;19.774;2024-02-21T15:03:43;101022.00;;;11.99;54.42
72961;BME280;61141;46.204;19.774;2024-02-21T15:06:46;101009.16;;;11.84;55.20
72961;BME280;61141;46.204;19.774;2024-02-21T15:09:51;101016.84;;;11.59;57.30
72961;BME280;61141;46.204;19.774;2024-02-21T15:12:54;101012.56;;;11.62;57.48
72961;BME280;61141;46.204;19.774;2024-02-21T15:15:57;101008.59;;;11.59;59.25
72961;BME280;61141;46.204;19.774;2024-02-21T15:19:00;100994.50;;;11.61;58.13
72961;BME280;61141;46.204;19.774;2024-02-21T15:22:03;100995.22;;;11.58;57.18
72961;BME280;61141;46.204;19.774;2024-02-21T15:25:07;100998.38;;;11.41;56.55
72961;BME280;61141;46.204;19.774;2024-02-21T15:28:15;100998.69;;;11.55;59.12
72961;BME280;61141;46.204;19.774;2024-02-21T15:31:22;101001.00;;;11.53;59.13
72961;BME280;61141;46.204;19.774;2024-02-21T15:34:25;101004.59;;;11.38;59.50
72961;BME280;61141;46.204;19.774;2024-02-21T15:37:29;101003.63;;;11.30;61.24
72961;BME280;61141;46.204;19.774;2024-02-21T15:40:32;101003.06;;;11.21;61.10
72961;BME280;61141;46.204;19.774;2024-02-21T15:43:38;100991.22;;;11.01;59.27
72961;BME280;61141;46.204;19.774;2024-02-21T15:46:41;101003.34;;;11.00;61.51
72961;BME280;61141;46.204;19.774;2024-02-21T15:49:45;101004.41;;;10.96;64.06
72961;BME280;61141;46.204;19.774;2024-02-21T15:52:48;100982.59;;;10.68;64.13